sensor_id;sensor_type;location;lat;lon;timestamp;temperature;humidity
20422;DHT22;10370;53.102;18.034;2023-12-20T00:02:41;6.60;99.90
20422;DHT22;10370;53.102;18.034;2023-12-20T00:08:18;6.60;99.90
20422;DHT22;10370;53.102;18.034;2023-12-20T00:13:43;6.60;99.90
20422;DHT22;10370;53.102;18.034;2023-12-20T00:19:14;6.60;99.90
20422;DHT22;10370;53.102;18.034;2023-12-20T00:24:37;6.60;99.90
20422;DHT22;10370;53.102;18.034;2023-12-20T00:30:08;6.60;99.90
20422;DHT22;10370;53.102;18.034;2023-12-20T00:35:33;6.60;99.90
20422;DHT22;10370;53.102;18.034;2023-12-20T00:41:11;6.60;99.90
20422;DHT22;10370;53.102;18.034;2023-12-20T00:46:34;6.60;99.90
20422;DHT22;10370;53.102;18.034;2023-12-20T00:52:06;6.60;99.90
20422;DHT22;10370;53.102;18.034;2023-12-20T00:57:35;6.60;99.90
20422;DHT22;10370;53.102;18.034;2023-12-20T01:02:57;6.70;99.90
20422;DHT22;10370;53.102;18.034;2023-12-20T01:08:20;6.70;99.90
20422;DHT22;10370;53.102;18.034;2023-12-20T01:13:43;6.70;99.90
20422;DHT22;10370;53.102;18.034;2023-12-20T01:19:14;6.70;99.90
20422;DHT22;10370;53.102;18.034;2023-12-20T01:24:37;6.70;99.90
20422;DHT22;10370;53.102;18.034;2023-12-20T01:29:59;6.70;99.90
20422;DHT22;10370;53.102;18.034;2023-12-20T01:35:25;6.70;99.90
20422;DHT22;10370;53.102;18.034;2023-12-20T01:40:47;6.70;99.90
20422;DHT22;10370;53.102;18.034;2023-12-20T01:46:35;6.70;99.90
20422;DHT22;10370;53.102;18.034;2023-12-20T01:52:08;6.70;99.90
20422;DHT22;10370;53.102;18.034;2023-12-20T01:57:46;6.70;99.90
20422;DHT22;10370;53.102;18.034;2023-12-20T02:03:10;6.70;99.90
20422;DHT22;10370;53.102;18.034;2023-12-20T02:08:33;6.70;99.90
20422;DHT22;10370;53.102;18.034;2023-12-20T02:13:59;6.70;99.90
20422;DHT22;10370;53.102;18.034;2023-12-20T02:19:43;6.70;99.90
20422;DHT22;10370;53.102;18.034;2023-12-20T02:25:06;6.70;99.90
20422;DHT22;10370;53.102;18.034;2023-12-20T02:30:29;6.70;99.90
20422;DHT22;10370;53.102;18.034;2023-12-20T02:35:52;6.70;99.90
20422;DHT22;10370;53.102;18.034;2023-12-20T02:41:15;6.70;99.90
20422;DHT22;10370;53.102;18.034;2023-12-20T02:46:40;6.70;99.90
20422;DHT22;10370;53.102;18.034;2023-12-20T02:52:02;6.70;99.90
20422;DHT22;10370;53.102;18.034;2023-12-20T02:57:25;6.70;99.90
20422;DHT22;10370;53.102;18.034;2023-12-20T03:02:52;6.70;99.90
20422;DHT22;10370;53.102;18.034;2023-12-20T03:08:15;6.70;99.90
20422;DHT22;10370;53.102;18.034;2023-12-20T03:13:40;6.70;99.90
20422;DHT22;10370;53.102;18.034;2023-12-20T03:19:03;6.70;99.90
20422;DHT22;10370;53.102;18.034;2023-12-20T03:24:26;6.70;99.90
20422;DHT22;10370;53.102;18.034;2023-12-20T03:29:52;6.70;99.90
20422;DHT22;10370;53.102;18.034;2023-12-20T03:35:14;6.70;99.90
20422;DHT22;10370;53.102;18.034;2023-12-20T03:40:37;6.70;99.90
20422;DHT22;10370;53.102;18.034;2023-12-20T03:45:59;6.70;99.90
20422;DHT22;10370;53.102;18.034;2023-12-20T03:51:22;6.60;99.90
20422;DHT22;10370;53.102;18.034;2023-12-20T03:56:45;6.70;99.90
20422;DHT22;10370;53.102;18.034;2023-12-20T04:02:10;6.60;99.90
20422;DHT22;10370;53.102;18.034;2023-12-20T04:07:45;6.60;99.90
20422;DHT22;10370;53.102;18.034;2023-12-20T04:13:07;6.60;99.90
20422;DHT22;10370;53.102;18.034;2023-12-20T04:18:30;6.60;99.90
20422;DHT22;10370;53.102;18.034;2023-12-20T04:23:54;6.50;99.90
20422;DHT22;10370;53.102;18.034;2023-12-20T04:29:17;6.50;99.90
20422;DHT22;10370;53.102;18.034;2023-12-20T04:34:39;6.40;99.90
20422;DHT22;10370;53.102;18.034;2023-12-20T04:40:04;6.40;99.90
20422;DHT22;10370;53.102;18.034;2023-12-20T04:45:28;6.30;99.90
20422;DHT22;10370;53.102;18.034;2023-12-20T04:50:50;6.30;99.90
20422;DHT22;10370;53.102;18.034;2023-12-20T04:56:13;6.30;99.90
20422;DHT22;10370;53.102;18.034;2023-12-20T05:01:35;6.30;99.90
20422;DHT22;10370;53.102;18.034;2023-12-20T05:06:58;6.30;99.90
20422;DHT22;10370;53.102;18.034;2023-12-20T05:12:21;6.20;99.90
20422;DHT22;10370;53.102;18.034;2023-12-20T05:17:44;6.20;99.90
20422;DHT22;10370;53.102;18.034;2023-12-20T05:23:07;6.20;99.90
20422;DHT22;10370;53.102;18.034;2023-12-20T05:28:32;6.30;99.90
20422;DHT22;10370;53.102;18.034;2023-12-20T05:33:55;6.30;99.90
20422;DHT22;10370;53.102;18.034;2023-12-20T05:39:18;6.20;99.90
20422;DHT22;10370;53.102;18.034;2023-12-20T05:44:40;6.20;99.90
20422;DHT22;10370;53.102;18.034;2023-12-20T05:50:04;6.20;99.90
20422;DHT22;10370;53.102;18.034;2023-12-20T05:55:26;6.10;99.90
20422;DHT22;10370;53.102;18.034;2023-12-20T06:00:49;5.90;99.90
20422;DHT22;10370;53.102;18.034;2023-12-20T06:06:12;5.80;99.90
20422;DHT22;10370;53.102;18.034;2023-12-20T06:11:38;5.70;99.90
20422;DHT22;10370;53.102;18.034;2023-12-20T06:17:04;5.60;99.90
20422;DHT22;10370;53.102;18.034;2023-12-20T06:22:29;5.50;99.90
20422;DHT22;10370;53.102;18.034;2023-12-20T06:27:51;5.40;99.90
20422;DHT22;10370;53.102;18.034;2023-12-20T06:33:14;5.30;99.90
20422;DHT22;10370;53.102;18.034;2023-12-20T06:38:37;5.20;99.90
20422;DHT22;10370;53.102;18.034;2023-12-20T06:44:00;5.20;99.90
20422;DHT22;10370;53.102;18.034;2023-12-20T06:49:23;5.20;99.90
20422;DHT22;10370;53.102;18.034;2023-12-20T06:54:46;5.10;99.90
20422;DHT22;10370;53.102;18.034;2023-12-20T07:00:11;5.10;99.90
20422;DHT22;10370;53.102;18.034;2023-12-20T07:05:46;5.00;99.90
20422;DHT22;10370;53.102;18.034;2023-12-20T07:11:09;5.00;99.90
20422;DHT22;10370;53.102;18.034;2023-12-20T07:16:32;5.00;99.90
20422;DHT22;10370;53.102;18.034;2023-12-20T07:21:55;5.00;99.90
20422;DHT22;10370;53.102;18.034;2023-12-20T07:27:18;5.00;99.90
20422;DHT22;10370;53.102;18.034;2023-12-20T07:32:44;5.00;99.90
20422;DHT22;10370;53.102;18.034;2023-12-20T07:38:12;5.00;99.90
20422;DHT22;10370;53.102;18.034;2023-12-20T07:43:35;5.00;99.90
20422;DHT22;10370;53.102;18.034;2023-12-20T07:48:58;4.90;99.90
20422;DHT22;10370;53.102;18.034;2023-12-20T07:54:21;4.90;99.90
20422;DHT22;10370;53.102;18.034;2023-12-20T07:59:45;5.10;99.90
20422;DHT22;10370;53.102;18.034;2023-12-20T08:05:08;5.10;99.90
20422;DHT22;10370;53.102;18.034;2023-12-20T08:10:30;5.10;99.90
20422;DHT22;10370;53.102;18.034;2023-12-20T08:15:53;5.10;99.90
20422;DHT22;10370;53.102;18.034;2023-12-20T08:21:16;5.10;99.90
20422;DHT22;10370;53.102;18.034;2023-12-20T08:26:42;5.10;99.90
20422;DHT22;10370;53.102;18.034;2023-12-20T08:32:05;5.10;99.90
20422;DHT22;10370;53.102;18.034;2023-12-20T08:37:28;5.10;99.90
20422;DHT22;10370;53.102;18.034;2023-12-20T08:42:52;5.20;99.90
20422;DHT22;10370;53.102;18.034;2023-12-20T08:48:15;5.30;99.90
20422;DHT22;10370;53.102;18.034;2023-12-20T08:53:38;5.40;99.90
20422;DHT22;10370;53.102;18.034;2023-12-20T08:59:00;5.50;99.90
20422;DHT22;10370;53.102;18.034;2023-12-20T09:04:23;5.40;99.90
20422;DHT22;10370;53.102;18.034;2023-12-20T09:09:46;5.40;99.90
20422;DHT22;10370;53.102;18.034;2023-12-20T09:15:18;5.50;99.90
20422;DHT22;10370;53.102;18.034;2023-12-20T09:20:41;5.70;99.90
20422;DHT22;10370;53.102;18.034;2023-12-20T09:26:05;5.90;99.90
20422;DHT22;10370;53.102;18.034;2023-12-20T09:31:33;6.00;99.90
20422;DHT22;10370;53.102;18.034;2023-12-20T09:36:59;6.00;99.90
20422;DHT22;10370;53.102;18.034;2023-12-20T09:42:29;6.00;99.90
20422;DHT22;10370;53.102;18.034;2023-12-20T09:47:55;5.90;99.90
20422;DHT22;10370;53.102;18.034;2023-12-20T09:53:19;6.00;99.90
20422;DHT22;10370;53.102;18.034;2023-12-20T09:58:43;6.20;99.90
20422;DHT22;10370;53.102;18.034;2023-12-20T10:04:11;6.20;99.90
20422;DHT22;10370;53.102;18.034;2023-12-20T10:10:05;6.30;99.90
20422;DHT22;10370;53.102;18.034;2023-12-20T10:15:36;6.20;99.90
20422;DHT22;10370;53.102;18.034;2023-12-20T10:21:00;6.30;99.90
20422;DHT22;10370;53.102;18.034;2023-12-20T10:26:25;6.50;99.90
20422;DHT22;10370;53.102;18.034;2023-12-20T10:31:47;6.60;99.90
20422;DHT22;10370;53.102;18.034;2023-12-20T10:37:10;6.60;99.90
20422;DHT22;10370;53.102;18.034;2023-12-20T10:42:34;6.60;99.90
20422;DHT22;10370;53.102;18.034;2023-12-20T10:47:58;6.50;99.90
20422;DHT22;10370;53.102;18.034;2023-12-20T10:53:27;6.50;99.90
20422;DHT22;10370;53.102;18.034;2023-12-20T10:58:51;6.50;99.90
20422;DHT22;10370;53.102;18.034;2023-12-20T11:04:22;6.40;99.90
20422;DHT22;10370;53.102;18.034;2023-12-20T11:09:58;6.40;99.90
20422;DHT22;10370;53.102;18.034;2023-12-20T11:15:22;6.30;99.90
20422;DHT22;10370;53.102;18.034;2023-12-20T11:20:47;6.30;99.90
20422;DHT22;10370;53.102;18.034;2023-12-20T11:26:11;6.30;99.90
20422;DHT22;10370;53.102;18.034;2023-12-20T11:31:40;6.20;99.90
20422;DHT22;10370;53.102;18.034;2023-12-20T11:37:03;6.30;99.90
20422;DHT22;10370;53.102;18.034;2023-12-20T11:42:26;6.30;99.90
20422;DHT22;10370;53.102;18.034;2023-12-20T11:47:50;6.20;99.90
20422;DHT22;10370;53.102;18.034;2023-12-20T11:53:13;6.30;99.90
20422;DHT22;10370;53.102;18.034;2023-12-20T11:58:36;6.30;99.90
20422;DHT22;10370;53.102;18.034;2023-12-20T12:04:06;6.20;99.90
20422;DHT22;10370;53.102;18.034;2023-12-20T12:09:29;6.10;99.90
20422;DHT22;10370;53.102;18.034;2023-12-20T12:14:52;6.00;99.90
20422;DHT22;10370;53.102;18.034;2023-12-20T12:20:15;6.10;99.90
20422;DHT22;10370;53.102;18.034;2023-12-20T12:25:42;6.10;99.90
20422;DHT22;10370;53.102;18.034;2023-12-20T12:31:14;6.10;99.90
20422;DHT22;10370;53.102;18.034;2023-12-20T12:36:39;6.10;99.90
20422;DHT22;10370;53.102;18.034;2023-12-20T12:42:03;6.00;99.90
20422;DHT22;10370;53.102;18.034;2023-12-20T12:47:26;6.00;99.90
20422;DHT22;10370;53.102;18.034;2023-12-20T12:52:49;5.90;99.90
20422;DHT22;10370;53.102;18.034;2023-12-20T12:58:33;6.00;99.90
20422;DHT22;10370;53.102;18.034;2023-12-20T13:09:37;5.90;99.90
20422;DHT22;10370;53.102;18.034;2023-12-20T13:15:00;5.80;99.90
20422;DHT22;10370;53.102;18.034;2023-12-20T13:20:40;5.80;99.90
20422;DHT22;10370;53.102;18.034;2023-12-20T13:26:03;5.80;99.90
20422;DHT22;10370;53.102;18.034;2023-12-20T13:31:26;5.80;99.90
20422;DHT22;10370;53.102;18.034;2023-12-20T13:36:49;5.80;99.90
20422;DHT22;10370;53.102;18.034;2023-12-20T13:42:16;5.80;99.90
20422;DHT22;10370;53.102;18.034;2023-12-20T13:47:39;5.80;99.90
20422;DHT22;10370;53.102;18.034;2023-12-20T13:53:02;5.80;99.90
20422;DHT22;10370;53.102;18.034;2023-12-20T13:58:26;5.80;99.90
20422;DHT22;10370;53.102;18.034;2023-12-20T14:03:49;5.80;99.90
20422;DHT22;10370;53.102;18.034;2023-12-20T14:09:12;5.80;99.90
20422;DHT22;10370;53.102;18.034;2023-12-20T14:14:35;5.80;99.90
20422;DHT22;10370;53.102;18.034;2023-12-20T14:19:57;5.80;99.90
20422;DHT22;10370;53.102;18.034;2023-12-20T14:25:20;5.80;99.90
20422;DHT22;10370;53.102;18.034;2023-12-20T14:30:45;5.80;99.90
20422;DHT22;10370;53.102;18.034;2023-12-20T14:36:08;5.80;99.90
20422;DHT22;10370;53.102;18.034;2023-12-20T14:41:31;5.80;99.90
20422;DHT22;10370;53.102;18.034;2023-12-20T14:46:54;5.80;99.90
20422;DHT22;10370;53.102;18.034;2023-12-20T14:52:20;5.70;99.90
20422;DHT22;10370;53.102;18.034;2023-12-20T14:57:43;5.80;99.90
20422;DHT22;10370;53.102;18.034;2023-12-20T15:03:08;5.80;99.90
20422;DHT22;10370;53.102;18.034;2023-12-20T15:08:31;5.80;99.90
20422;DHT22;10370;53.102;18.034;2023-12-20T15:13:54;5.80;99.90
20422;DHT22;10370;53.102;18.034;2023-12-20T15:19:20;5.80;99.90
20422;DHT22;10370;53.102;18.034;2023-12-20T15:24:46;5.80;99.90
20422;DHT22;10370;53.102;18.034;2023-12-20T15:30:10;5.70;99.90
20422;DHT22;10370;53.102;18.034;2023-12-20T15:35:35;5.70;99.90
20422;DHT22;10370;53.102;18.034;2023-12-20T15:40:58;5.60;99.90
20422;DHT22;10370;53.102;18.034;2023-12-20T15:46:24;5.50;99.90
20422;DHT22;10370;53.102;18.034;2023-12-20T15:51:50;5.50;99.90
20422;DHT22;10370;53.102;18.034;2023-12-20T15:57:13;5.40;99.90
20422;DHT22;10370;53.102;18.034;2023-12-20T16:02:37;5.40;99.90
20422;DHT22;10370;53.102;18.034;2023-12-20T16:08:03;5.40;99.90
20422;DHT22;10370;53.102;18.034;2023-12-20T16:13:27;5.40;99.90
20422;DHT22;10370;53.102;18.034;2023-12-20T16:19:01;5.40;99.90
20422;DHT22;10370;53.102;18.034;2023-12-20T16:24:24;5.50;99.90
20422;DHT22;10370;53.102;18.034;2023-12-20T16:29:46;5.40;99.90
20422;DHT22;10370;53.102;18.034;2023-12-20T16:35:09;5.40;99.90
20422;DHT22;10370;53.102;18.034;2023-12-20T16:40:35;5.40;99.90
20422;DHT22;10370;53.102;18.034;2023-12-20T16:45:58;5.40;99.90
20422;DHT22;10370;53.102;18.034;2023-12-20T16:51:22;5.40;99.90
20422;DHT22;10370;53.102;18.034;2023-12-20T16:56:45;5.20;99.90
20422;DHT22;10370;53.102;18.034;2023-12-20T17:02:08;5.10;99.90
20422;DHT22;10370;53.102;18.034;2023-12-20T17:07:31;5.10;99.90
20422;DHT22;10370;53.102;18.034;2023-12-20T17:12:54;5.20;99.90
20422;DHT22;10370;53.102;18.034;2023-12-20T17:18:19;5.10;99.90
20422;DHT22;10370;53.102;18.034;2023-12-20T17:23:54;4.80;99.90
20422;DHT22;10370;53.102;18.034;2023-12-20T17:29:33;4.50;99.90
20422;DHT22;10370;53.102;18.034;2023-12-20T17:34:55;4.30;99.90
20422;DHT22;10370;53.102;18.034;2023-12-20T17:40:21;4.20;99.90
20422;DHT22;10370;53.102;18.034;2023-12-20T17:45:44;4.20;99.90
20422;DHT22;10370;53.102;18.034;2023-12-20T17:51:06;4.10;99.90
20422;DHT22;10370;53.102;18.034;2023-12-20T17:56:32;4.10;99.90
20422;DHT22;10370;53.102;18.034;2023-12-20T18:01:57;4.20;99.90
20422;DHT22;10370;53.102;18.034;2023-12-20T18:07:20;4.10;99.90
20422;DHT22;10370;53.102;18.034;2023-12-20T18:12:52;4.20;99.90
20422;DHT22;10370;53.102;18.034;2023-12-20T18:18:23;4.20;99.90
20422;DHT22;10370;53.102;18.034;2023-12-20T18:24:00;4.20;99.90
20422;DHT22;10370;53.102;18.034;2023-12-20T18:29:28;4.30;99.90
20422;DHT22;10370;53.102;18.034;2023-12-20T18:34:51;4.50;99.90
20422;DHT22;10370;53.102;18.034;2023-12-20T18:40:16;4.50;99.90
20422;DHT22;10370;53.102;18.034;2023-12-20T18:45:39;4.60;99.90
20422;DHT22;10370;53.102;18.034;2023-12-20T18:51:02;4.70;99.90
20422;DHT22;10370;53.102;18.034;2023-12-20T18:56:25;4.80;99.90
20422;DHT22;10370;53.102;18.034;2023-12-20T19:01:48;4.80;99.90
20422;DHT22;10370;53.102;18.034;2023-12-20T19:07:11;4.70;99.90
20422;DHT22;10370;53.102;18.034;2023-12-20T19:12:34;4.70;99.90
20422;DHT22;10370;53.102;18.034;2023-12-20T19:17:57;4.70;99.90
20422;DHT22;10370;53.102;18.034;2023-12-20T19:23:20;4.60;99.90
20422;DHT22;10370;53.102;18.034;2023-12-20T19:28:42;4.60;99.90
20422;DHT22;10370;53.102;18.034;2023-12-20T19:34:08;4.70;99.90
20422;DHT22;10370;53.102;18.034;2023-12-20T19:39:31;4.70;99.90
20422;DHT22;10370;53.102;18.034;2023-12-20T19:44:55;4.60;99.90
20422;DHT22;10370;53.102;18.034;2023-12-20T19:50:18;4.60;99.90
20422;DHT22;10370;53.102;18.034;2023-12-20T19:55:41;4.60;99.90
20422;DHT22;10370;53.102;18.034;2023-12-20T20:01:04;4.50;99.90
20422;DHT22;10370;53.102;18.034;2023-12-20T20:06:27;4.50;99.90
20422;DHT22;10370;53.102;18.034;2023-12-20T20:11:50;4.50;99.90
20422;DHT22;10370;53.102;18.034;2023-12-20T20:17:12;4.40;99.90
20422;DHT22;10370;53.102;18.034;2023-12-20T20:22:35;4.30;99.90
20422;DHT22;10370;53.102;18.034;2023-12-20T20:27:58;4.10;99.90
20422;DHT22;10370;53.102;18.034;2023-12-20T20:33:22;4.10;99.90
20422;DHT22;10370;53.102;18.034;2023-12-20T20:38:45;4.00;99.90
20422;DHT22;10370;53.102;18.034;2023-12-20T20:44:08;3.90;99.90
20422;DHT22;10370;53.102;18.034;2023-12-20T20:49:31;3.90;99.90
20422;DHT22;10370;53.102;18.034;2023-12-20T20:54:53;3.90;99.90
20422;DHT22;10370;53.102;18.034;2023-12-20T21:00:16;4.00;99.90
20422;DHT22;10370;53.102;18.034;2023-12-20T21:05:40;4.10;99.90
20422;DHT22;10370;53.102;18.034;2023-12-20T21:11:03;4.10;99.90
20422;DHT22;10370;53.102;18.034;2023-12-20T21:16:26;4.20;99.90
20422;DHT22;10370;53.102;18.034;2023-12-20T21:21:49;4.20;99.90
20422;DHT22;10370;53.102;18.034;2023-12-20T21:27:12;4.20;99.90
20422;DHT22;10370;53.102;18.034;2023-12-20T21:32:36;4.20;99.90
20422;DHT22;10370;53.102;18.034;2023-12-20T21:37:59;4.20;99.90
20422;DHT22;10370;53.102;18.034;2023-12-20T21:43:24;4.20;99.90
20422;DHT22;10370;53.102;18.034;2023-12-20T21:48:47;4.30;99.90
20422;DHT22;10370;53.102;18.034;2023-12-20T21:54:10;4.20;99.90
20422;DHT22;10370;53.102;18.034;2023-12-20T21:59:33;4.20;99.90
20422;DHT22;10370;53.102;18.034;2023-12-20T22:04:57;4.20;99.90
20422;DHT22;10370;53.102;18.034;2023-12-20T22:10:22;4.20;99.90
20422;DHT22;10370;53.102;18.034;2023-12-20T22:15:44;4.10;99.90
20422;DHT22;10370;53.102;18.034;2023-12-20T22:21:08;4.10;99.90
20422;DHT22;10370;53.102;18.034;2023-12-20T22:26:32;4.10;99.90
20422;DHT22;10370;53.102;18.034;2023-12-20T22:31:56;4.00;99.90
20422;DHT22;10370;53.102;18.034;2023-12-20T22:37:18;4.00;99.90
20422;DHT22;10370;53.102;18.034;2023-12-20T22:42:41;4.00;99.90
20422;DHT22;10370;53.102;18.034;2023-12-20T22:48:04;4.10;99.90
20422;DHT22;10370;53.102;18.034;2023-12-20T22:53:29;4.10;99.90
20422;DHT22;10370;53.102;18.034;2023-12-20T22:58:51;4.10;99.90
20422;DHT22;10370;53.102;18.034;2023-12-20T23:04:14;4.20;99.90
20422;DHT22;10370;53.102;18.034;2023-12-20T23:09:37;4.20;99.90
20422;DHT22;10370;53.102;18.034;2023-12-20T23:15:01;4.30;99.90
20422;DHT22;10370;53.102;18.034;2023-12-20T23:20:23;4.30;99.90
20422;DHT22;10370;53.102;18.034;2023-12-20T23:25:46;4.30;99.90
20422;DHT22;10370;53.102;18.034;2023-12-20T23:31:09;4.30;99.90
20422;DHT22;10370;53.102;18.034;2023-12-20T23:36:32;4.40;99.90
20422;DHT22;10370;53.102;18.034;2023-12-20T23:41:55;4.30;99.90
20422;DHT22;10370;53.102;18.034;2023-12-20T23:47:17;4.40;99.90
20422;DHT22;10370;53.102;18.034;2023-12-20T23:52:40;4.40;99.90
20422;DHT22;10370;53.102;18.034;2023-12-20T23:58:03;4.50;99.90
